createdAt,value
2023-08-29T00:01:37.912Z,18.25
2023-08-29T00:04:26.571Z,18.26
2023-08-29T00:07:15.196Z,18.28
2023-08-29T00:10:04.430Z,18.31
2023-08-29T00:12:53.725Z,18.34
2023-08-29T00:15:42.337Z,18.36
2023-08-29T00:18:30.911Z,18.36
2023-08-29T00:21:19.507Z,18.36
2023-08-29T00:24:10.932Z,18.38
2023-08-29T00:27:00.022Z,18.39
2023-08-29T00:29:48.674Z,18.41
2023-08-29T00:32:37.322Z,18.45
2023-08-29T00:35:26.131Z,18.49
2023-08-29T00:38:15.665Z,18.50
2023-08-29T00:41:05.015Z,18.53
2023-08-29T00:43:53.770Z,18.59
2023-08-29T00:46:44.232Z,18.64
2023-08-29T00:49:32.972Z,18.70
2023-08-29T00:52:21.821Z,18.70
2023-08-29T00:55:10.599Z,18.66
2023-08-29T00:58:01.423Z,18.64
2023-08-29T01:00:50.216Z,18.60
2023-08-29T01:03:40.115Z,18.56
2023-08-29T01:06:28.997Z,18.55
2023-08-29T01:09:17.792Z,18.53
2023-08-29T01:12:12.423Z,18.53
2023-08-29T01:15:13.964Z,18.50
2023-08-29T01:18:07.090Z,18.45
2023-08-29T01:21:03.999Z,18.43
2023-08-29T01:24:02.625Z,18.44
2023-08-29T01:26:52.366Z,18.45
2023-08-29T01:29:42.658Z,18.50
2023-08-29T01:32:31.974Z,18.53
2023-08-29T01:35:22.923Z,18.55
2023-08-29T01:38:11.513Z,18.54
2023-08-29T01:41:00.170Z,18.51
2023-08-29T01:43:48.850Z,18.52
2023-08-29T01:46:38.450Z,18.56
2023-08-29T01:49:28.252Z,18.51
2023-08-29T01:52:17.059Z,18.44
2023-08-29T01:55:06.167Z,18.43
2023-08-29T01:57:55.729Z,18.47
2023-08-29T02:00:45.379Z,18.48
2023-08-29T02:03:34.096Z,18.30
2023-08-29T02:06:22.777Z,18.19
2023-08-29T02:09:12.326Z,18.11
2023-08-29T02:12:01.167Z,18.03
2023-08-29T02:14:49.871Z,17.99
2023-08-29T02:17:38.645Z,18.02
2023-08-29T02:20:30.446Z,18.03
2023-08-29T02:23:19.130Z,17.98
2023-08-29T02:26:09.248Z,18.01
2023-08-29T02:28:57.976Z,18.00
2023-08-29T02:31:46.772Z,17.98
2023-08-29T02:34:35.376Z,17.88
2023-08-29T02:37:25.567Z,17.74
2023-08-29T02:40:14.387Z,17.66
2023-08-29T02:43:03.060Z,17.66
2023-08-29T02:45:52.003Z,17.69
2023-08-29T02:48:40.693Z,17.71
2023-08-29T02:51:29.318Z,17.64
2023-08-29T02:54:19.421Z,17.51
2023-08-29T02:57:08.073Z,17.39
2023-08-29T02:59:56.823Z,17.29
2023-08-29T03:02:45.570Z,17.14
2023-08-29T03:05:34.451Z,17.01
2023-08-29T03:08:23.336Z,16.92
2023-08-29T03:11:12.157Z,16.87
2023-08-29T03:14:00.841Z,16.80
2023-08-29T03:16:49.511Z,16.74
2023-08-29T03:19:38.327Z,16.67
2023-08-29T03:22:26.920Z,16.64
2023-08-29T03:25:15.814Z,16.60
2023-08-29T03:28:05.428Z,16.51
2023-08-29T03:30:54.384Z,16.45
2023-08-29T03:33:44.877Z,16.39
2023-08-29T03:36:33.651Z,16.31
2023-08-29T03:39:22.401Z,16.24
2023-08-29T03:42:11.042Z,16.18
2023-08-29T03:44:59.689Z,16.12
2023-08-29T03:47:49.600Z,16.08
2023-08-29T03:50:38.326Z,16.03
2023-08-29T03:53:26.927Z,15.98
2023-08-29T03:56:16.568Z,15.96
2023-08-29T03:59:05.338Z,15.93
2023-08-29T04:01:53.986Z,15.92
2023-08-29T04:04:45.632Z,15.87
2023-08-29T04:07:34.384Z,15.86
2023-08-29T04:10:23.006Z,15.86
2023-08-29T04:13:16.301Z,15.81
2023-08-29T04:16:05.402Z,15.76
2023-08-29T04:18:55.247Z,15.75
2023-08-29T04:21:44.227Z,15.73
2023-08-29T04:24:33.712Z,15.74
2023-08-29T04:27:22.895Z,15.74
2023-08-29T04:30:11.717Z,15.76
2023-08-29T04:33:00.869Z,15.80
2023-08-29T04:35:51.898Z,15.80
2023-08-29T04:38:43.156Z,15.79
2023-08-29T04:41:31.770Z,15.81
2023-08-29T04:44:20.548Z,15.84
2023-08-29T04:47:09.670Z,15.84
2023-08-29T04:49:58.940Z,15.86
2023-08-29T04:52:49.686Z,15.87
2023-08-29T04:55:38.794Z,15.91
2023-08-29T04:58:27.878Z,15.96
2023-08-29T05:01:18.246Z,15.96
2023-08-29T05:04:09.820Z,15.97
2023-08-29T05:06:58.454Z,16.00
2023-08-29T05:09:48.262Z,16.04
2023-08-29T05:12:37.060Z,16.06
2023-08-29T05:15:25.823Z,16.08
2023-08-29T05:18:14.680Z,16.14
2023-08-29T05:21:03.975Z,16.22
2023-08-29T05:23:52.626Z,16.23
2023-08-29T05:26:41.284Z,16.24
2023-08-29T05:29:29.934Z,16.24
2023-08-29T05:32:18.495Z,16.22
2023-08-29T05:35:10.457Z,16.24
2023-08-29T05:37:59.085Z,16.27
2023-08-29T05:40:55.224Z,16.33
2023-08-29T05:43:43.810Z,16.34
2023-08-29T05:46:32.603Z,16.34
2023-08-29T05:49:21.262Z,16.34
2023-08-29T05:52:10.000Z,16.36
2023-08-29T05:54:58.908Z,16.37
2023-08-29T05:57:47.541Z,16.45
2023-08-29T06:00:37.257Z,16.48
2023-08-29T06:03:26.060Z,16.48
2023-08-29T06:06:16.266Z,16.53
2023-08-29T06:09:04.959Z,16.61
2023-08-29T06:11:53.628Z,16.59
2023-08-29T06:14:42.345Z,16.64
2023-08-29T06:17:31.334Z,16.69
2023-08-29T06:20:20.095Z,16.72
2023-08-29T06:23:08.723Z,16.80
2023-08-29T06:25:57.412Z,16.85
2023-08-29T06:28:46.138Z,16.86
2023-08-29T06:31:34.893Z,16.93
2023-08-29T06:34:24.837Z,17.06
2023-08-29T06:37:13.446Z,17.19
2023-08-29T06:40:02.062Z,17.26
2023-08-29T06:42:50.789Z,17.34
2023-08-29T06:45:39.373Z,17.36
2023-08-29T06:48:27.973Z,17.47
2023-08-29T06:51:16.583Z,17.64
2023-08-29T06:54:05.496Z,17.83
2023-08-29T06:56:54.054Z,17.97
2023-08-29T06:59:42.647Z,18.02
2023-08-29T07:02:31.396Z,18.12
2023-08-29T07:05:20.566Z,18.19
2023-08-29T07:08:09.405Z,18.14
2023-08-29T07:10:58.361Z,18.06
2023-08-29T07:13:46.999Z,18.11
2023-08-29T07:16:35.688Z,18.25
2023-08-29T07:19:24.338Z,18.47
2023-08-29T07:25:06.721Z,18.82
2023-08-29T07:27:55.312Z,18.96
2023-08-29T07:30:46.871Z,19.07
2023-08-29T07:33:35.561Z,19.19
2023-08-29T07:36:24.241Z,19.34
2023-08-29T07:39:13.293Z,19.45
2023-08-29T07:42:01.923Z,19.46
2023-08-29T07:44:50.587Z,19.40
2023-08-29T07:47:39.316Z,19.33
2023-08-29T07:50:28.679Z,19.30
2023-08-29T07:53:17.512Z,19.34
2023-08-29T07:56:06.157Z,19.36
2023-08-29T07:58:54.914Z,19.29
2023-08-29T08:01:44.159Z,19.24
2023-08-29T08:04:32.806Z,19.22
2023-08-29T08:07:21.554Z,19.15
2023-08-29T08:10:11.665Z,19.11
2023-08-29T08:13:00.302Z,19.05
2023-08-29T08:15:48.868Z,19.03
2023-08-29T08:18:37.537Z,19.06
2023-08-29T08:21:26.146Z,19.02
2023-08-29T08:24:14.775Z,19.04
2023-08-29T08:27:03.716Z,19.06
2023-08-29T08:29:52.345Z,19.18
2023-08-29T08:32:40.964Z,19.28
2023-08-29T08:35:31.812Z,19.53
2023-08-29T08:38:22.256Z,19.62
2023-08-29T08:41:11.689Z,19.71
2023-08-29T08:44:05.081Z,19.91
2023-08-29T08:46:54.192Z,20.10
2023-08-29T08:49:43.988Z,20.30
2023-08-29T08:52:34.753Z,20.48
2023-08-29T08:55:24.133Z,20.66
2023-08-29T08:58:13.725Z,20.71
2023-08-29T09:01:02.597Z,20.66
2023-08-29T09:03:51.870Z,20.72
2023-08-29T09:06:40.799Z,20.76
2023-08-29T09:09:29.394Z,20.84
2023-08-29T09:12:18.032Z,20.88
2023-08-29T09:15:07.129Z,20.79
2023-08-29T09:17:55.959Z,20.77
2023-08-29T09:20:44.762Z,20.85
2023-08-29T09:23:38.884Z,20.98
2023-08-29T09:26:35.080Z,21.10
2023-08-29T09:29:25.191Z,21.09
2023-08-29T09:32:15.135Z,21.04
2023-08-29T09:35:06.804Z,21.11
2023-08-29T09:37:56.600Z,21.30
2023-08-29T09:40:50.455Z,21.39
2023-08-29T09:43:48.870Z,21.52
2023-08-29T09:46:37.673Z,21.68
2023-08-29T09:49:52.922Z,21.83
2023-08-29T09:52:42.095Z,21.98
2023-08-29T09:55:40.552Z,21.99
2023-08-29T09:58:30.775Z,21.86
2023-08-29T10:01:21.906Z,21.78
2023-08-29T10:04:13.131Z,21.80
2023-08-29T10:07:02.498Z,21.79
2023-08-29T10:09:52.358Z,21.75
2023-08-29T10:12:41.704Z,21.61
2023-08-29T10:15:34.549Z,21.48
2023-08-29T10:18:24.561Z,21.39
2023-08-29T10:21:14.102Z,21.35
2023-08-29T10:24:04.196Z,21.33
2023-08-29T10:26:53.384Z,21.29
2023-08-29T10:29:42.104Z,21.20
2023-08-29T10:32:31.424Z,21.03
2023-08-29T10:35:23.867Z,20.92
2023-08-29T10:38:16.709Z,20.84
2023-08-29T10:41:07.788Z,20.82
2023-08-29T10:44:44.814Z,20.81
2023-08-29T10:47:47.088Z,20.79
2023-08-29T10:50:37.994Z,20.74
2023-08-29T10:53:30.718Z,20.65
2023-08-29T10:59:30.409Z,20.60
2023-08-29T11:02:23.286Z,20.60
2023-08-29T11:05:13.494Z,20.61
2023-08-29T11:08:24.251Z,20.63
2023-08-29T11:11:17.835Z,20.59
2023-08-29T11:14:09.385Z,20.52
2023-08-29T11:17:13.508Z,20.47
2023-08-29T11:20:08.091Z,20.50
2023-08-29T11:22:56.975Z,20.57
2023-08-29T11:25:50.854Z,20.59
2023-08-29T11:28:43.328Z,20.66
2023-08-29T11:31:32.070Z,20.67
2023-08-29T11:34:22.155Z,20.67
2023-08-29T11:37:13.437Z,20.73
2023-08-29T11:40:06.830Z,20.75
2023-08-29T11:43:15.808Z,20.71
2023-08-29T11:46:07.932Z,20.71
2023-08-29T11:48:56.604Z,20.66
2023-08-29T11:51:45.570Z,20.70
2023-08-29T11:54:42.673Z,20.72
2023-08-29T11:57:31.534Z,20.66
2023-08-29T12:00:21.367Z,20.65
2023-08-29T12:03:10.221Z,20.66
2023-08-29T12:05:59.524Z,20.71
2023-08-29T12:08:49.125Z,20.70
2023-08-29T12:11:43.170Z,20.68
2023-08-29T12:14:32.361Z,20.61
2023-08-29T12:17:21.448Z,20.56
2023-08-29T12:20:13.533Z,20.58
2023-08-29T12:23:02.426Z,20.69
2023-08-29T12:25:50.990Z,20.74
2023-08-29T12:28:40.042Z,20.73
2023-08-29T12:31:28.818Z,20.79
2023-08-29T12:34:17.505Z,20.87
2023-08-29T12:37:06.748Z,20.97
2023-08-29T12:39:55.370Z,21.03
2023-08-29T12:42:45.263Z,21.22
2023-08-29T12:45:44.656Z,21.40
2023-08-29T12:48:42.141Z,21.45
2023-08-29T12:51:32.384Z,21.48
2023-08-29T12:54:20.980Z,21.55
2023-08-29T12:57:10.662Z,21.53
2023-08-29T12:59:59.246Z,21.52
2023-08-29T13:02:48.686Z,21.46
2023-08-29T13:05:37.545Z,21.34
2023-08-29T13:08:26.336Z,21.29
2023-08-29T13:11:14.960Z,21.20
2023-08-29T13:14:04.522Z,21.17
2023-08-29T13:16:55.556Z,21.17
2023-08-29T13:19:44.160Z,21.15
2023-08-29T13:22:32.744Z,21.13
2023-08-29T13:25:22.272Z,21.13
2023-08-29T13:28:11.045Z,21.11
2023-08-29T13:31:00.191Z,21.04
2023-08-29T13:33:50.039Z,20.91
2023-08-29T13:36:41.446Z,20.76
2023-08-29T13:39:30.186Z,20.64
2023-08-29T13:42:18.873Z,20.50
2023-08-29T13:45:08.519Z,20.47
2023-08-29T13:47:57.204Z,20.47
2023-08-29T13:50:46.345Z,20.32
2023-08-29T13:53:35.039Z,20.31
2023-08-29T13:56:23.672Z,20.36
2023-08-29T13:59:12.331Z,20.37
2023-08-29T14:02:00.969Z,20.28
2023-08-29T14:04:49.607Z,20.33
2023-08-29T14:07:38.267Z,20.43
2023-08-29T14:10:26.904Z,20.52
2023-08-29T14:13:15.565Z,20.68
2023-08-29T14:16:04.860Z,20.80
2023-08-29T14:18:54.056Z,20.91
2023-08-29T14:21:42.976Z,21.01
2023-08-29T14:24:31.536Z,21.11
2023-08-29T14:27:20.038Z,21.19
2023-08-29T14:30:08.808Z,21.23
2023-08-29T14:32:57.612Z,21.30
2023-08-29T14:35:46.189Z,21.36
2023-08-29T14:38:34.833Z,21.26
2023-08-29T14:41:23.438Z,21.11
2023-08-29T14:44:12.007Z,20.98
2023-08-29T14:47:00.637Z,20.94
2023-08-29T14:49:49.135Z,20.98
2023-08-29T14:52:38.782Z,21.15
2023-08-29T14:55:27.342Z,21.28
2023-08-29T14:58:15.896Z,21.21
2023-08-29T15:01:04.685Z,20.94
2023-08-29T15:03:53.326Z,20.89
2023-08-29T15:06:41.908Z,20.89
2023-08-29T15:09:30.440Z,20.93
2023-08-29T15:12:22.611Z,20.99
2023-08-29T15:15:11.323Z,21.05
2023-08-29T15:17:59.899Z,21.08
2023-08-29T15:20:49.806Z,21.04
2023-08-29T15:23:38.369Z,21.03
2023-08-29T15:26:27.011Z,20.92
2023-08-29T15:29:17.631Z,20.75
2023-08-29T15:32:06.523Z,20.71
2023-08-29T15:34:55.123Z,20.68
2023-08-29T15:37:43.679Z,20.57
2023-08-29T15:40:32.609Z,20.40
2023-08-29T15:43:22.758Z,20.28
2023-08-29T15:46:11.409Z,20.27
2023-08-29T15:48:59.947Z,20.33
2023-08-29T15:51:48.498Z,20.43
2023-08-29T15:54:37.222Z,20.50
2023-08-29T15:57:25.838Z,20.57
2023-08-29T16:00:17.765Z,20.54
2023-08-29T16:03:07.908Z,20.39
2023-08-29T16:05:56.670Z,20.25
2023-08-29T16:08:45.248Z,20.16
2023-08-29T16:11:33.868Z,20.12
2023-08-29T16:14:23.353Z,20.14
2023-08-29T16:17:11.954Z,20.17
2023-08-29T16:20:00.542Z,20.04
2023-08-29T16:22:49.138Z,19.85
2023-08-29T16:25:37.696Z,19.77
2023-08-29T16:28:26.953Z,19.81
2023-08-29T16:31:15.614Z,19.72
2023-08-29T16:34:04.210Z,19.79
2023-08-29T16:36:52.844Z,19.83
2023-08-29T16:39:41.567Z,19.79
2023-08-29T16:42:33.828Z,19.79
2023-08-29T16:45:24.641Z,19.72
2023-08-29T16:48:13.128Z,19.70
2023-08-29T16:51:01.666Z,19.68
2023-08-29T16:53:50.221Z,19.75
2023-08-29T16:56:38.749Z,19.86
2023-08-29T16:59:31.552Z,19.95
2023-08-29T17:02:20.409Z,20.06
2023-08-29T17:05:09.280Z,20.13
2023-08-29T17:07:58.443Z,20.08
2023-08-29T17:10:47.706Z,20.07
2023-08-29T17:13:36.223Z,20.05
2023-08-29T17:16:24.867Z,19.90
2023-08-29T17:19:14.096Z,19.85
2023-08-29T17:22:03.396Z,19.83
2023-08-29T17:24:52.434Z,19.87
2023-08-29T17:27:41.164Z,19.91
2023-08-29T17:30:29.688Z,19.93
2023-08-29T17:33:20.384Z,19.94
2023-08-29T17:36:09.167Z,19.87
2023-08-29T17:38:57.770Z,19.82
2023-08-29T17:41:46.332Z,19.62
2023-08-29T17:44:34.865Z,19.45
2023-08-29T17:47:23.469Z,19.34
2023-08-29T17:50:13.807Z,19.21
2023-08-29T17:53:02.457Z,19.17
2023-08-29T17:55:53.518Z,19.14
2023-08-29T17:58:42.070Z,19.14
2023-08-29T18:01:30.707Z,19.17
2023-08-29T18:04:19.282Z,19.24
2023-08-29T18:07:09.606Z,19.29
2023-08-29T18:10:14.664Z,19.35
2023-08-29T18:13:03.830Z,19.38
2023-08-29T18:15:52.565Z,19.40
2023-08-29T18:18:41.180Z,19.32
2023-08-29T18:21:29.851Z,19.26
2023-08-29T18:24:18.374Z,19.20
2023-08-29T18:27:06.938Z,19.07
2023-08-29T18:29:55.477Z,19.05
2023-08-29T18:32:44.271Z,19.10
2023-08-29T18:35:34.844Z,19.10
2023-08-29T18:38:24.777Z,18.97
2023-08-29T18:41:13.353Z,18.86
2023-08-29T18:44:01.923Z,18.72
2023-08-29T18:46:50.445Z,18.60
2023-08-29T18:49:39.142Z,18.60
2023-08-29T18:52:27.656Z,18.55
2023-08-29T18:55:16.942Z,18.56
2023-08-29T18:58:05.908Z,18.57
2023-08-29T19:00:54.691Z,18.61
2023-08-29T19:03:44.762Z,18.64
2023-08-29T19:06:33.635Z,18.67
2023-08-29T19:09:22.380Z,18.60
2023-08-29T19:12:11.005Z,18.54
2023-08-29T19:15:01.849Z,18.52
2023-08-29T19:17:50.390Z,18.57
2023-08-29T19:20:39.282Z,18.58
2023-08-29T19:23:29.341Z,18.50
2023-08-29T19:26:18.541Z,18.44
2023-08-29T19:29:07.158Z,18.45
2023-08-29T19:31:55.842Z,18.38
2023-08-29T19:34:44.372Z,18.29
2023-08-29T19:37:33.231Z,18.29
2023-08-29T19:40:21.994Z,18.28
2023-08-29T19:43:10.520Z,18.24
2023-08-29T19:45:59.197Z,18.24
2023-08-29T19:48:47.753Z,18.24
2023-08-29T19:51:36.300Z,18.29
2023-08-29T19:54:24.911Z,18.35
2023-08-29T19:57:14.374Z,18.33
2023-08-29T20:00:06.314Z,18.28
2023-08-29T20:03:02.420Z,18.28
2023-08-29T20:05:51.041Z,18.33
2023-08-29T20:08:39.834Z,18.41
2023-08-29T20:11:28.734Z,18.49
2023-08-29T20:14:17.425Z,18.54
2023-08-29T20:17:06.641Z,18.57
2023-08-29T20:19:55.299Z,18.56
2023-08-29T20:22:44.567Z,18.57
2023-08-29T20:25:33.987Z,18.61
2023-08-29T20:28:22.873Z,18.64
2023-08-29T20:31:12.252Z,18.70
2023-08-29T20:34:00.849Z,18.75
2023-08-29T20:36:49.506Z,18.74
2023-08-29T20:39:38.913Z,18.73
2023-08-29T20:42:27.508Z,18.66
2023-08-29T20:45:16.459Z,18.59
2023-08-29T20:48:05.601Z,18.51
2023-08-29T20:51:02.229Z,18.49
2023-08-29T20:53:51.210Z,18.49
2023-08-29T20:56:39.826Z,18.50
2023-08-29T20:59:28.786Z,18.51
2023-08-29T21:02:17.429Z,18.48
2023-08-29T21:05:06.817Z,18.45
2023-08-29T21:07:55.341Z,18.43
2023-08-29T21:10:44.692Z,18.43
2023-08-29T21:13:33.292Z,18.39
2023-08-29T21:16:21.835Z,18.34
2023-08-29T21:19:10.377Z,18.30
2023-08-29T21:21:59.250Z,18.35
2023-08-29T21:24:47.841Z,18.37
2023-08-29T21:27:36.357Z,18.37
2023-08-29T21:30:24.910Z,18.40
2023-08-29T21:33:14.897Z,18.41
2023-08-29T21:36:04.321Z,18.43
2023-08-29T21:38:52.912Z,18.45
2023-08-29T21:41:41.884Z,18.42
2023-08-29T21:44:30.383Z,18.43
2023-08-29T21:47:18.962Z,18.43
2023-08-29T21:50:07.951Z,18.40
2023-08-29T21:52:56.759Z,18.39
2023-08-29T21:55:45.987Z,18.42
2023-08-29T21:58:34.605Z,18.44
2023-08-29T22:01:23.186Z,18.47
2023-08-29T22:04:11.734Z,18.49
2023-08-29T22:07:00.283Z,18.49
2023-08-29T22:09:48.862Z,18.43
2023-08-29T22:12:37.713Z,18.39
2023-08-29T22:15:26.291Z,18.40
2023-08-29T22:18:14.942Z,18.37
2023-08-29T22:21:07.845Z,18.31
2023-08-29T22:23:56.516Z,18.35
2023-08-29T22:26:45.040Z,18.37
2023-08-29T22:29:34.940Z,18.36
2023-08-29T22:32:23.940Z,18.34
2023-08-29T22:35:12.652Z,18.30
2023-08-29T22:38:01.655Z,18.24
2023-08-29T22:40:50.636Z,18.13
2023-08-29T22:43:39.260Z,18.01
2023-08-29T22:46:27.931Z,17.89
2023-08-29T22:49:16.858Z,17.84
2023-08-29T22:52:05.875Z,17.82
2023-08-29T22:54:54.527Z,17.86
2023-08-29T22:57:43.154Z,17.88
2023-08-29T23:00:31.840Z,17.94
2023-08-29T23:03:20.651Z,18.04
2023-08-29T23:06:09.349Z,18.09
2023-08-29T23:08:58.911Z,18.15
2023-08-29T23:11:47.482Z,18.17
2023-08-29T23:14:36.151Z,18.15
2023-08-29T23:17:25.013Z,18.12
2023-08-29T23:20:13.871Z,18.11
2023-08-29T23:23:02.528Z,18.02
2023-08-29T23:25:59.131Z,17.87
2023-08-29T23:28:47.797Z,17.70
2023-08-29T23:31:36.509Z,17.60
2023-08-29T23:34:26.660Z,17.54
2023-08-29T23:37:15.240Z,17.51
2023-08-29T23:40:08.075Z,17.50
2023-08-29T23:42:56.935Z,17.53
2023-08-29T23:45:45.551Z,17.57
2023-08-29T23:48:34.692Z,17.61
2023-08-29T23:51:23.601Z,17.70
2023-08-29T23:54:12.181Z,17.75
2023-08-29T23:57:00.712Z,17.79
2023-08-29T23:59:49.347Z,17.83
